createdAt,value
2023-05-16T00:01:07.332Z,12.51
2023-05-16T00:03:35.490Z,12.37
2023-05-16T00:06:05.236Z,12.19
2023-05-16T00:08:33.002Z,12.15
2023-05-16T00:11:00.718Z,12.25
2023-05-16T00:13:29.644Z,12.22
2023-05-16T00:15:57.761Z,12.18
2023-05-16T00:18:27.135Z,12.04
2023-05-16T00:20:55.528Z,11.96
2023-05-16T00:23:24.836Z,12.10
2023-05-16T00:25:52.536Z,12.05
2023-05-16T00:28:20.292Z,12.21
2023-05-16T00:30:48.371Z,11.94
2023-05-16T00:33:16.123Z,12.10
2023-05-16T00:35:43.995Z,11.92
2023-05-16T00:38:11.666Z,12.15
2023-05-16T00:40:40.924Z,12.06
2023-05-16T00:43:08.682Z,12.18
2023-05-16T00:45:36.572Z,12.17
2023-05-16T00:48:04.785Z,12.07
2023-05-16T00:50:35.530Z,12.14
2023-05-16T00:53:03.597Z,11.88
2023-05-16T00:55:32.427Z,11.83
2023-05-16T00:58:01.572Z,12.04
2023-05-16T01:00:29.702Z,12.07
2023-05-16T01:02:58.029Z,11.90
2023-05-16T01:05:26.275Z,12.14
2023-05-16T01:07:54.144Z,12.19
2023-05-16T01:10:22.129Z,12.25
2023-05-16T01:12:58.925Z,12.28
2023-05-16T01:15:31.589Z,12.25
2023-05-16T01:18:04.530Z,12.28
2023-05-16T01:20:39.778Z,12.22
2023-05-16T01:23:20.945Z,12.35
2023-05-16T01:25:58.511Z,12.37
2023-05-16T01:28:29.377Z,12.34
2023-05-16T01:30:57.096Z,12.30
2023-05-16T01:33:24.796Z,12.19
2023-05-16T01:36:03.912Z,12.16
2023-05-16T01:38:38.693Z,12.15
2023-05-16T01:41:17.360Z,11.86
2023-05-16T01:43:50.410Z,12.01
2023-05-16T01:46:22.791Z,12.08
2023-05-16T01:48:55.069Z,11.93
2023-05-16T01:51:25.773Z,11.89
2023-05-16T01:53:55.588Z,11.71
2023-05-16T01:56:23.988Z,11.79
2023-05-16T01:58:55.264Z,11.70
2023-05-16T02:01:23.011Z,11.48
2023-05-16T02:03:51.640Z,11.22
2023-05-16T02:06:19.548Z,11.18
2023-05-16T02:08:47.252Z,11.06
2023-05-16T02:11:14.972Z,11.14
2023-05-16T02:13:42.696Z,11.05
2023-05-16T02:16:13.281Z,10.87
2023-05-16T02:18:41.416Z,10.96
2023-05-16T02:21:09.250Z,10.95
2023-05-16T02:23:36.988Z,10.81
2023-05-16T02:26:04.850Z,10.73
2023-05-16T02:28:32.620Z,10.77
2023-05-16T02:31:01.082Z,10.55
2023-05-16T02:33:30.584Z,10.65
2023-05-16T02:35:58.328Z,10.42
2023-05-16T02:38:26.080Z,10.58
2023-05-16T02:40:53.819Z,10.43
2023-05-16T02:43:21.487Z,10.48
2023-05-16T02:45:49.197Z,10.43
2023-05-16T02:48:16.979Z,10.33
2023-05-16T02:50:46.225Z,10.64
2023-05-16T02:53:14.004Z,10.55
2023-05-16T02:55:41.964Z,10.62
2023-05-16T02:58:09.729Z,10.88
2023-05-16T03:00:37.476Z,10.74
2023-05-16T03:03:06.145Z,10.36
2023-05-16T03:05:33.969Z,10.36
2023-05-16T03:08:03.082Z,10.20
2023-05-16T03:10:30.811Z,10.25
2023-05-16T03:12:58.478Z,10.21
2023-05-16T03:15:26.863Z,10.21
2023-05-16T03:17:54.874Z,10.28
2023-05-16T03:20:22.759Z,10.11
2023-05-16T03:22:50.437Z,9.88
2023-05-16T03:25:19.657Z,10.02
2023-05-16T03:27:47.391Z,9.86
2023-05-16T03:30:15.673Z,10.13
2023-05-16T03:32:43.480Z,10.34
2023-05-16T03:35:12.010Z,10.56
2023-05-16T03:37:40.260Z,10.46
2023-05-16T03:40:09.795Z,10.28
2023-05-16T03:42:38.823Z,10.15
2023-05-16T03:45:08.019Z,10.09
2023-05-16T03:47:35.946Z,9.89
2023-05-16T03:50:03.860Z,9.82
2023-05-16T03:52:31.626Z,9.78
2023-05-16T03:54:59.333Z,9.72
2023-05-16T03:57:27.475Z,9.68
2023-05-16T03:59:56.694Z,9.77
2023-05-16T04:02:24.649Z,9.73
2023-05-16T04:04:52.647Z,9.81
2023-05-16T04:07:22.441Z,9.82
2023-05-16T04:09:52.756Z,9.71
2023-05-16T04:12:20.570Z,9.67
2023-05-16T04:14:48.375Z,9.60
2023-05-16T04:17:17.722Z,9.54
2023-05-16T04:19:45.515Z,9.35
2023-05-16T04:22:13.193Z,9.62
2023-05-16T04:24:41.052Z,9.69
2023-05-16T04:27:09.456Z,9.56
2023-05-16T04:29:37.395Z,9.60
2023-05-16T04:32:07.494Z,9.61
2023-05-16T04:34:39.798Z,9.56
2023-05-16T04:37:09.570Z,9.57
2023-05-16T04:39:37.326Z,9.53
2023-05-16T04:42:05.684Z,9.59
2023-05-16T04:44:34.503Z,9.56
2023-05-16T04:47:02.315Z,9.83
2023-05-16T04:49:30.016Z,9.91
2023-05-16T04:51:59.461Z,9.96
2023-05-16T04:54:27.456Z,9.94
2023-05-16T04:56:55.204Z,10.06
2023-05-16T04:59:23.076Z,10.22
2023-05-16T05:01:50.897Z,10.44
2023-05-16T05:04:18.826Z,10.54
2023-05-16T05:06:46.665Z,10.52
2023-05-16T05:09:16.136Z,10.71
2023-05-16T05:11:43.882Z,10.52
2023-05-16T05:14:11.590Z,10.43
2023-05-16T05:16:39.441Z,10.42
2023-05-16T05:19:08.873Z,10.73
2023-05-16T05:21:36.672Z,10.82
2023-05-16T05:24:04.427Z,10.82
2023-05-16T05:26:33.551Z,10.72
2023-05-16T05:29:05.847Z,10.58
2023-05-16T05:31:34.898Z,10.74
2023-05-16T05:34:03.278Z,10.87
2023-05-16T05:36:31.024Z,11.01
2023-05-16T05:38:58.896Z,11.22
2023-05-16T05:41:27.346Z,11.38
2023-05-16T05:43:56.431Z,11.12
2023-05-16T05:46:26.330Z,11.05
2023-05-16T05:48:54.222Z,10.95
2023-05-16T05:51:22.045Z,11.14
2023-05-16T05:53:50.044Z,11.35
2023-05-16T05:56:17.816Z,11.45
2023-05-16T05:58:45.839Z,11.57
2023-05-16T06:01:14.907Z,11.89
2023-05-16T06:03:42.919Z,12.11
2023-05-16T06:06:10.985Z,12.24
2023-05-16T06:08:38.646Z,12.30
2023-05-16T06:11:06.692Z,12.31
2023-05-16T06:13:34.449Z,12.53
2023-05-16T06:16:02.204Z,12.39
2023-05-16T06:18:31.404Z,12.58
2023-05-16T06:20:59.129Z,12.57
2023-05-16T06:23:27.178Z,12.45
2023-05-16T06:25:54.968Z,12.91
2023-05-16T06:28:23.919Z,13.09
2023-05-16T06:30:52.193Z,13.23
2023-05-16T06:33:20.279Z,13.00
2023-05-16T06:35:49.651Z,12.99
2023-05-16T06:38:17.551Z,13.09
2023-05-16T06:40:45.415Z,13.21
2023-05-16T06:43:13.178Z,13.62
2023-05-16T06:45:40.978Z,13.68
2023-05-16T06:48:09.621Z,13.72
2023-05-16T06:50:37.465Z,13.26
2023-05-16T06:53:07.379Z,13.69
2023-05-16T06:55:35.176Z,13.71
2023-05-16T06:58:02.957Z,13.88
2023-05-16T07:00:30.722Z,14.32
2023-05-16T07:02:58.672Z,14.59
2023-05-16T07:05:26.788Z,14.71
2023-05-16T07:07:54.703Z,14.93
2023-05-16T07:10:24.189Z,15.19
2023-05-16T07:12:51.891Z,15.43
2023-05-16T07:15:20.307Z,15.62
2023-05-16T07:17:48.189Z,15.80
2023-05-16T07:20:16.005Z,15.51
2023-05-16T07:22:43.787Z,15.59
2023-05-16T07:25:12.918Z,15.25
2023-05-16T07:27:44.624Z,15.84
2023-05-16T07:30:13.843Z,15.77
2023-05-16T07:32:42.637Z,16.04
2023-05-16T07:35:11.118Z,15.43
2023-05-16T07:37:41.463Z,15.57
2023-05-16T07:40:10.452Z,15.68
2023-05-16T07:42:38.232Z,15.95
2023-05-16T07:45:08.598Z,15.36
2023-05-16T07:47:36.609Z,16.20
2023-05-16T07:50:04.596Z,16.10
2023-05-16T07:52:32.389Z,15.61
2023-05-16T07:55:00.419Z,16.09
2023-05-16T07:57:28.461Z,15.93
2023-05-16T07:59:56.661Z,16.43
2023-05-16T08:02:30.493Z,16.77
2023-05-16T08:04:58.712Z,16.45
2023-05-16T08:07:26.959Z,16.89
2023-05-16T08:09:54.659Z,16.11
2023-05-16T08:12:22.467Z,16.71
2023-05-16T08:14:50.246Z,16.50
2023-05-16T08:17:18.017Z,16.59
2023-05-16T08:19:47.359Z,16.94
2023-05-16T08:22:15.113Z,17.04
2023-05-16T08:24:42.863Z,16.53
2023-05-16T08:27:12.086Z,16.91
2023-05-16T08:29:39.878Z,17.02
2023-05-16T08:32:09.730Z,17.33
2023-05-16T08:34:37.790Z,17.16
2023-05-16T08:37:07.030Z,17.21
2023-05-16T08:39:34.917Z,17.01
2023-05-16T08:42:02.788Z,17.20
2023-05-16T08:44:30.694Z,17.13
2023-05-16T08:46:58.886Z,17.59
2023-05-16T08:49:28.799Z,17.61
2023-05-16T08:51:59.317Z,17.61
2023-05-16T08:54:28.725Z,17.87
2023-05-16T08:56:58.695Z,18.00
2023-05-16T08:59:26.614Z,17.84
2023-05-16T09:01:54.365Z,17.44
2023-05-16T09:04:22.480Z,17.23
2023-05-16T09:06:52.270Z,17.53
2023-05-16T09:09:20.108Z,17.75
2023-05-16T09:11:49.390Z,17.19
2023-05-16T09:14:17.836Z,17.32
2023-05-16T09:19:14.677Z,17.88
2023-05-16T09:21:43.470Z,17.46
2023-05-16T09:24:11.424Z,17.52
2023-05-16T09:26:40.186Z,18.08
2023-05-16T09:29:13.498Z,17.65
2023-05-16T09:31:41.454Z,18.22
2023-05-16T09:34:11.335Z,18.20
2023-05-16T09:36:41.010Z,18.61
2023-05-16T09:39:09.938Z,18.36
2023-05-16T09:41:37.721Z,18.18
2023-05-16T09:44:06.808Z,17.74
2023-05-16T09:46:38.470Z,18.18
2023-05-16T09:49:06.565Z,18.22
2023-05-16T09:51:34.505Z,18.69
2023-05-16T09:54:02.251Z,18.15
2023-05-16T09:56:30.674Z,18.60
2023-05-16T09:58:58.513Z,18.71
2023-05-16T10:01:26.974Z,18.38
2023-05-16T10:03:56.435Z,18.54
2023-05-16T10:06:25.107Z,18.56
2023-05-16T10:08:53.024Z,18.60
2023-05-16T10:11:21.708Z,18.29
2023-05-16T10:13:53.376Z,18.38
2023-05-16T10:16:23.623Z,18.71
2023-05-16T10:18:52.281Z,18.63
2023-05-16T10:21:24.588Z,18.56
2023-05-16T10:23:53.663Z,18.27
2023-05-16T10:26:21.932Z,18.93
2023-05-16T10:28:50.007Z,19.11
2023-05-16T10:31:18.230Z,18.96
2023-05-16T10:33:46.938Z,19.13
2023-05-16T10:36:15.660Z,18.88
2023-05-16T10:38:46.720Z,19.37
2023-05-16T10:41:15.099Z,19.42
2023-05-16T10:43:46.630Z,19.08
2023-05-16T10:46:15.702Z,18.68
2023-05-16T10:48:43.698Z,19.16
2023-05-16T10:51:37.442Z,20.13
2023-05-16T10:54:10.809Z,19.95
2023-05-16T10:56:39.142Z,19.34
2023-05-16T10:59:24.577Z,19.13
2023-05-16T11:01:54.627Z,19.48
2023-05-16T11:04:22.546Z,19.61
2023-05-16T11:06:54.779Z,19.93
2023-05-16T11:09:27.609Z,20.36
2023-05-16T11:11:57.305Z,20.69
2023-05-16T11:14:28.852Z,20.39
2023-05-16T11:17:03.224Z,20.68
2023-05-16T11:19:36.212Z,19.79
2023-05-16T11:22:23.236Z,19.83
2023-05-16T11:24:58.199Z,20.36
2023-05-16T11:27:28.971Z,19.97
2023-05-16T11:30:03.257Z,19.30
2023-05-16T11:32:33.096Z,19.07
2023-05-16T11:35:01.204Z,19.75
2023-05-16T11:37:29.397Z,20.30
2023-05-16T11:40:02.196Z,20.49
2023-05-16T11:42:33.934Z,20.40
2023-05-16T11:45:08.916Z,20.18
2023-05-16T11:47:41.293Z,20.04
2023-05-16T11:50:13.851Z,19.84
2023-05-16T11:52:44.520Z,19.98
2023-05-16T11:55:21.528Z,20.74
2023-05-16T11:57:58.140Z,20.70
2023-05-16T12:00:27.592Z,20.96
2023-05-16T12:03:02.901Z,20.56
2023-05-16T12:05:32.733Z,20.01
2023-05-16T12:08:01.030Z,20.10
2023-05-16T12:10:34.185Z,20.63
2023-05-16T12:13:03.331Z,20.93
2023-05-16T12:15:31.636Z,20.66
2023-05-16T12:17:59.864Z,20.08
2023-05-16T12:20:27.997Z,20.31
2023-05-16T12:22:58.957Z,20.53
2023-05-16T12:25:28.948Z,20.82
2023-05-16T12:27:59.647Z,21.12
2023-05-16T12:30:29.435Z,21.19
2023-05-16T12:32:58.546Z,21.31
2023-05-16T12:35:27.358Z,21.27
2023-05-16T12:37:56.151Z,21.78
2023-05-16T12:40:24.168Z,22.39
2023-05-16T12:42:52.632Z,21.63
2023-05-16T12:45:23.397Z,20.84
2023-05-16T12:47:51.590Z,20.33
2023-05-16T12:50:19.418Z,19.76
2023-05-16T12:52:51.653Z,19.85
2023-05-16T12:55:20.407Z,20.04
2023-05-16T12:57:49.199Z,20.09
2023-05-16T13:00:21.306Z,20.21
2023-05-16T13:02:50.756Z,20.18
2023-05-16T13:05:18.843Z,19.62
2023-05-16T13:07:46.725Z,20.03
2023-05-16T13:10:14.470Z,20.38
2023-05-16T13:12:42.659Z,19.81
2023-05-16T13:15:12.899Z,19.57
2023-05-16T13:17:43.981Z,19.89
2023-05-16T13:20:15.033Z,19.62
2023-05-16T13:22:43.688Z,19.95
2023-05-16T13:25:12.299Z,20.17
2023-05-16T13:27:40.181Z,19.88
2023-05-16T13:30:09.220Z,19.81
2023-05-16T13:32:37.070Z,19.88
2023-05-16T13:35:05.996Z,20.14
2023-05-16T13:37:35.348Z,21.63
2023-05-16T13:40:03.562Z,21.78
2023-05-16T13:42:31.402Z,21.37
2023-05-16T13:45:01.470Z,22.22
2023-05-16T13:47:29.683Z,22.04
2023-05-16T13:49:57.431Z,22.03
2023-05-16T13:52:25.186Z,22.66
2023-05-16T13:54:54.375Z,21.84
2023-05-16T13:57:23.151Z,22.02
2023-05-16T14:02:21.792Z,22.61
2023-05-16T14:04:50.042Z,22.78
2023-05-16T14:07:18.031Z,22.02
2023-05-16T14:09:45.864Z,22.39
2023-05-16T14:12:14.972Z,22.00
2023-05-16T14:14:42.751Z,21.94
2023-05-16T14:17:10.564Z,22.01
2023-05-16T14:19:38.391Z,21.72
2023-05-16T14:22:06.594Z,22.51
2023-05-16T14:24:34.834Z,22.77
2023-05-16T14:27:03.338Z,22.18
2023-05-16T14:29:32.787Z,22.46
2023-05-16T14:32:00.696Z,21.77
2023-05-16T14:34:28.488Z,22.36
2023-05-16T14:36:56.193Z,22.29
2023-05-16T14:39:24.070Z,22.55
2023-05-16T14:41:51.794Z,21.96
2023-05-16T14:44:21.650Z,21.75
2023-05-16T14:46:51.739Z,20.36
2023-05-16T14:49:19.625Z,21.54
2023-05-16T14:51:49.305Z,22.09
2023-05-16T14:54:17.377Z,22.24
2023-05-16T14:56:46.099Z,21.60
2023-05-16T14:59:14.274Z,21.52
2023-05-16T15:01:42.138Z,21.71
2023-05-16T15:04:11.407Z,21.43
2023-05-16T15:06:39.159Z,20.92
2023-05-16T15:09:07.073Z,20.23
2023-05-16T15:11:34.811Z,20.55
2023-05-16T15:14:02.682Z,21.08
2023-05-16T15:16:31.109Z,21.44
2023-05-16T15:18:58.933Z,21.43
2023-05-16T15:21:28.192Z,22.01
2023-05-16T15:23:57.754Z,21.64
2023-05-16T15:26:25.506Z,21.51
2023-05-16T15:28:55.420Z,21.53
2023-05-16T15:31:23.682Z,21.06
2023-05-16T15:33:51.498Z,20.78
2023-05-16T15:36:19.263Z,20.43
2023-05-16T15:38:48.372Z,20.42
2023-05-16T15:41:32.000Z,20.61
2023-05-16T15:44:04.082Z,20.45
2023-05-16T15:46:32.998Z,20.65
2023-05-16T15:49:00.997Z,20.15
2023-05-16T15:51:28.761Z,20.57
2023-05-16T15:53:57.848Z,19.94
2023-05-16T15:56:25.782Z,20.23
2023-05-16T15:58:56.166Z,19.88
2023-05-16T16:01:23.986Z,19.87
2023-05-16T16:03:51.881Z,20.34
2023-05-16T16:06:19.925Z,20.42
2023-05-16T16:08:47.861Z,19.60
2023-05-16T16:11:17.014Z,19.96
2023-05-16T16:13:44.736Z,19.88
2023-05-16T16:16:12.613Z,20.36
2023-05-16T16:18:40.410Z,20.31
2023-05-16T16:21:08.566Z,19.66
2023-05-16T16:23:36.351Z,19.98
2023-05-16T16:26:04.270Z,19.93
2023-05-16T16:28:33.567Z,20.02
2023-05-16T16:31:01.383Z,20.03
2023-05-16T16:33:29.131Z,19.68
2023-05-16T16:35:56.880Z,18.76
2023-05-16T16:38:24.661Z,19.02
2023-05-16T16:40:52.454Z,18.50
2023-05-16T16:43:20.190Z,18.65
2023-05-16T16:45:49.656Z,19.52
2023-05-16T16:48:17.550Z,19.32
2023-05-16T16:50:45.357Z,18.33
2023-05-16T16:53:13.301Z,18.82
2023-05-16T16:55:41.255Z,19.20
2023-05-16T16:58:09.033Z,19.31
2023-05-16T17:00:36.868Z,19.34
2023-05-16T17:03:06.306Z,19.14
2023-05-16T17:05:34.117Z,19.12
2023-05-16T17:08:01.836Z,18.84
2023-05-16T17:10:30.218Z,18.31
2023-05-16T17:13:02.974Z,18.59
2023-05-16T17:15:30.846Z,18.81
2023-05-16T17:17:58.748Z,18.17
2023-05-16T17:20:27.925Z,18.26
2023-05-16T17:22:55.811Z,17.99
2023-05-16T17:25:23.595Z,18.21
2023-05-16T17:27:51.334Z,18.03
2023-05-16T17:30:19.121Z,17.65
2023-05-16T17:32:46.960Z,18.03
2023-05-16T17:35:15.161Z,17.92
2023-05-16T17:37:44.305Z,17.81
2023-05-16T17:40:17.022Z,18.01
2023-05-16T17:42:45.827Z,17.77
2023-05-16T17:45:14.869Z,17.97
2023-05-16T17:47:43.245Z,18.03
2023-05-16T17:50:11.880Z,17.58
2023-05-16T17:52:40.109Z,17.75
2023-05-16T17:55:10.694Z,18.00
2023-05-16T17:57:38.904Z,17.93
2023-05-16T18:00:07.906Z,17.72
2023-05-16T18:02:38.406Z,17.53
2023-05-16T18:05:07.713Z,17.60
2023-05-16T18:07:35.588Z,17.85
2023-05-16T18:10:03.593Z,18.16
2023-05-16T18:12:32.706Z,17.74
2023-05-16T18:15:00.516Z,17.45
2023-05-16T18:17:28.704Z,17.34
2023-05-16T18:19:56.651Z,17.36
2023-05-16T18:22:24.569Z,17.52
2023-05-16T18:24:52.354Z,17.28
2023-05-16T18:27:20.108Z,17.31
2023-05-16T18:29:49.214Z,17.72
2023-05-16T18:32:17.018Z,17.21
2023-05-16T18:34:44.754Z,17.08
2023-05-16T18:37:12.463Z,17.20
2023-05-16T18:39:41.588Z,16.88
2023-05-16T18:42:09.707Z,17.03
2023-05-16T18:44:37.749Z,16.85
2023-05-16T18:47:07.710Z,17.30
2023-05-16T18:49:38.992Z,16.77
2023-05-16T18:52:08.391Z,16.88
2023-05-16T18:54:36.872Z,16.49
2023-05-16T18:57:05.402Z,16.62
2023-05-16T18:59:33.876Z,16.65
2023-05-16T19:02:01.885Z,16.49
2023-05-16T19:04:31.248Z,16.68
2023-05-16T19:06:59.487Z,16.67
2023-05-16T19:09:28.034Z,16.37
2023-05-16T19:11:56.679Z,16.38
2023-05-16T19:14:24.501Z,16.63
2023-05-16T19:16:52.414Z,16.45
2023-05-16T19:19:21.003Z,16.12
2023-05-16T19:21:50.255Z,16.20
2023-05-16T19:24:18.199Z,15.69
2023-05-16T19:26:46.078Z,15.56
2023-05-16T19:29:13.908Z,15.78
2023-05-16T19:31:41.681Z,15.44
2023-05-16T19:34:11.182Z,15.85
2023-05-16T19:36:38.997Z,15.71
2023-05-16T19:39:08.089Z,15.50
2023-05-16T19:41:36.664Z,15.76
2023-05-16T19:44:04.637Z,16.08
2023-05-16T19:46:32.359Z,15.77
2023-05-16T19:49:00.196Z,15.63
2023-05-16T19:51:40.692Z,15.84
2023-05-16T19:54:10.770Z,15.72
2023-05-16T19:56:38.543Z,15.44
2023-05-16T19:59:06.288Z,15.16
2023-05-16T20:01:34.091Z,14.97
2023-05-16T20:04:02.519Z,15.24
2023-05-16T20:06:31.535Z,14.97
2023-05-16T20:08:59.302Z,15.23
2023-05-16T20:11:28.436Z,14.82
2023-05-16T20:13:59.438Z,15.20
2023-05-16T20:16:27.707Z,15.04
2023-05-16T20:18:55.576Z,15.20
2023-05-16T20:21:23.450Z,15.32
2023-05-16T20:23:51.223Z,15.34
2023-05-16T20:26:19.000Z,15.11
2023-05-16T20:28:48.154Z,15.14
2023-05-16T20:31:15.965Z,15.00
2023-05-16T20:33:43.868Z,14.87
2023-05-16T20:36:11.693Z,14.58
2023-05-16T20:38:39.515Z,14.95
2023-05-16T20:41:07.300Z,14.91
2023-05-16T20:43:35.070Z,14.92
2023-05-16T20:46:04.324Z,14.97
2023-05-16T20:48:32.443Z,14.93
2023-05-16T20:51:01.295Z,14.91
2023-05-16T20:53:29.452Z,14.63
2023-05-16T20:55:57.227Z,14.79
2023-05-16T20:58:24.995Z,14.75
2023-05-16T21:00:52.742Z,14.41
2023-05-16T21:03:22.115Z,14.62
2023-05-16T21:05:50.110Z,14.63
2023-05-16T21:08:17.926Z,14.48
2023-05-16T21:10:45.650Z,14.17
2023-05-16T21:13:13.436Z,14.23
2023-05-16T21:15:41.250Z,14.22
2023-05-16T21:18:09.128Z,14.34
2023-05-16T21:20:38.435Z,14.25
2023-05-16T21:23:06.185Z,14.28
2023-05-16T21:25:33.917Z,14.28
2023-05-16T21:28:01.696Z,14.22
2023-05-16T21:30:29.472Z,14.21
2023-05-16T21:32:57.240Z,13.98
2023-05-16T21:35:25.329Z,14.23
2023-05-16T21:37:54.526Z,13.88
2023-05-16T21:40:24.981Z,13.98
2023-05-16T21:42:53.245Z,13.90
2023-05-16T21:45:21.631Z,13.80
2023-05-16T21:47:49.583Z,13.67
2023-05-16T21:50:18.232Z,13.44
2023-05-16T21:52:46.141Z,13.71
2023-05-16T21:55:15.309Z,13.38
2023-05-16T21:57:43.166Z,13.54
2023-05-16T22:00:12.630Z,13.35
2023-05-16T22:02:40.458Z,13.38
2023-05-16T22:05:09.409Z,13.15
2023-05-16T22:07:37.607Z,13.49
2023-05-16T22:10:07.397Z,13.16
2023-05-16T22:12:36.587Z,12.99
2023-05-16T22:15:05.300Z,12.97
2023-05-16T22:17:33.189Z,13.11
2023-05-16T22:20:02.277Z,13.25
2023-05-16T22:22:30.087Z,13.31
2023-05-16T22:24:57.826Z,13.16
2023-05-16T22:27:25.746Z,13.17
2023-05-16T22:29:54.882Z,12.83
2023-05-16T22:32:22.893Z,12.91
2023-05-16T22:34:50.758Z,12.58
2023-05-16T22:37:18.569Z,12.82
2023-05-16T22:39:46.346Z,12.71
2023-05-16T22:42:14.058Z,12.84
2023-05-16T22:44:41.769Z,12.87
2023-05-16T22:47:11.024Z,12.95
2023-05-16T22:49:38.806Z,12.81
2023-05-16T22:52:06.946Z,12.74
2023-05-16T22:54:34.672Z,12.97
2023-05-16T22:57:02.425Z,12.91
2023-05-16T22:59:30.522Z,12.76
2023-05-16T23:01:58.332Z,12.69
2023-05-16T23:04:27.505Z,12.49
2023-05-16T23:06:55.248Z,12.63
2023-05-16T23:09:23.171Z,12.78
2023-05-16T23:11:51.244Z,12.43
2023-05-16T23:14:18.981Z,12.40
2023-05-16T23:16:46.714Z,12.30
2023-05-16T23:19:14.619Z,11.90
2023-05-16T23:21:44.545Z,12.18
2023-05-16T23:24:12.300Z,12.28
2023-05-16T23:26:40.036Z,12.40
2023-05-16T23:29:07.887Z,12.39
2023-05-16T23:31:35.727Z,12.22
2023-05-16T23:34:03.539Z,12.24
2023-05-16T23:36:31.406Z,12.10
2023-05-16T23:39:00.660Z,12.01
2023-05-16T23:41:28.441Z,12.12
2023-05-16T23:43:56.244Z,12.21
2023-05-16T23:46:23.971Z,12.29
2023-05-16T23:48:51.730Z,12.34
2023-05-16T23:51:19.575Z,12.28
2023-05-16T23:53:47.309Z,12.11
2023-05-16T23:56:16.386Z,12.47
2023-05-16T23:58:44.168Z,12.50
